createdAt,value
2016-06-12T00:00:53.201Z,96.32
2016-06-12T00:01:53.204Z,96.22
2016-06-12T00:02:53.207Z,96.32
2016-06-12T00:03:53.210Z,96.51
2016-06-12T00:04:53.791Z,96.7
2016-06-12T00:05:53.232Z,96.61
2016-06-12T00:06:53.220Z,96.56
2016-06-12T00:07:53.223Z,96.51
2016-06-12T00:08:53.251Z,96.51
2016-06-12T00:09:53.293Z,96.42
2016-06-12T00:10:53.319Z,96.42
2016-06-12T00:11:53.391Z,96.61
2016-06-12T00:12:53.416Z,95.94
2016-06-12T00:13:53.426Z,96.51
2016-06-12T00:14:53.442Z,95.94
2016-06-12T00:15:53.460Z,96.42
2016-06-12T00:16:53.554Z,96.13
2016-06-12T00:17:53.508Z,96.42
2016-06-12T00:18:53.535Z,96.22
2016-06-12T00:19:54.090Z,96.13
2016-06-12T00:20:53.535Z,96.42
2016-06-12T00:21:53.559Z,95.46
2016-06-12T00:22:53.536Z,95.65
2016-06-12T00:23:53.557Z,96.42
2016-06-12T00:24:53.547Z,95.75
2016-06-12T00:25:53.552Z,95.94
2016-06-12T00:26:53.572Z,95.56
2016-06-12T00:27:53.577Z,95.75
2016-06-12T00:28:53.566Z,95.56
2016-06-12T00:29:53.570Z,95.65
2016-06-12T00:30:53.573Z,95.07
2016-06-12T00:31:53.592Z,94.69
2016-06-12T00:32:53.595Z,95.65
2016-06-12T00:33:53.568Z,95.75
2016-06-12T00:34:53.462Z,95.56
2016-06-12T00:35:53.996Z,95.65
2016-06-12T00:36:53.594Z,94.69
2016-06-12T00:37:53.612Z,95.07
2016-06-12T00:38:53.631Z,95.07
2016-06-12T00:39:53.619Z,94.69
2016-06-12T00:40:53.621Z,95.07
2016-06-12T00:41:53.594Z,94.89
2016-06-12T00:42:53.612Z,94.59
2016-06-12T00:43:53.616Z,94.69
2016-06-12T00:44:53.603Z,94.21
2016-06-12T00:45:53.622Z,94.21
2016-06-12T00:46:53.625Z,94.12
2016-06-12T00:47:53.628Z,93.73
2016-06-12T00:48:53.646Z,94.02
2016-06-12T00:49:53.728Z,93.73
2016-06-12T00:50:53.715Z,93.73
2016-06-12T00:51:53.641Z,93.93
2016-06-12T00:52:53.643Z,94.02
2016-06-12T00:53:53.647Z,94.31
2016-06-12T00:54:53.650Z,94.12
2016-06-12T00:55:53.636Z,93.93
2016-06-12T00:56:53.749Z,92.87
2016-06-12T00:57:53.643Z,92.77
2016-06-12T00:58:53.662Z,93.16
2016-06-12T00:59:53.665Z,92.97
2016-06-12T01:00:53.652Z,93.44
2016-06-12T01:01:53.514Z,92.58
2016-06-12T01:02:53.674Z,92.97
2016-06-12T01:03:53.678Z,93.73
2016-06-12T01:04:53.680Z,93.93
2016-06-12T01:05:53.667Z,93.83
2016-06-12T01:06:53.686Z,93.63
2016-06-12T01:07:53.674Z,93.16
2016-06-12T01:08:53.692Z,93.44
2016-06-12T01:09:53.696Z,92.97
2016-06-12T01:10:53.699Z,93.44
2016-06-12T01:11:53.685Z,92.77
2016-06-12T01:12:53.705Z,92.3
2016-06-12T01:13:53.692Z,92.2
2016-06-12T01:14:53.554Z,92.1
2016-06-12T01:15:53.699Z,92.68
2016-06-12T01:16:53.732Z,92.87
2016-06-12T01:17:53.705Z,92.87
2016-06-12T01:18:53.707Z,92.58
2016-06-12T01:19:53.569Z,92.68
2016-06-12T01:20:54.010Z,92.97
2016-06-12T01:21:53.810Z,92.3
2016-06-12T01:22:53.720Z,92.49
2016-06-12T01:23:53.723Z,92.97
2016-06-12T01:24:53.742Z,93.26
2016-06-12T01:25:53.760Z,93.44
2016-06-12T01:26:53.748Z,93.35
2016-06-12T01:27:53.751Z,93.35
2016-06-12T01:28:53.738Z,93.54
2016-06-12T01:29:53.741Z,93.44
2016-06-12T01:30:53.745Z,92.87
2016-06-12T01:31:53.747Z,92.77
2016-06-12T01:32:53.750Z,92.39
2016-06-12T01:33:53.754Z,92.39
2016-06-12T01:34:53.804Z,92.1
2016-06-12T01:35:53.760Z,92.58
2016-06-12T01:36:53.747Z,92.58
2016-06-12T01:37:53.782Z,92.77
2016-06-12T01:38:53.753Z,93.83
2016-06-12T01:39:53.772Z,93.73
2016-06-12T01:40:53.792Z,93.93
2016-06-12T01:41:53.809Z,93.54
2016-06-12T01:42:53.797Z,93.35
2016-06-12T01:43:53.768Z,93.35
2016-06-12T01:44:53.772Z,93.54
2016-06-12T01:45:53.791Z,93.54
2016-06-12T01:46:53.777Z,93.16
2016-06-12T01:47:53.797Z,93.73
2016-06-12T01:48:53.800Z,92.49
2016-06-12T01:49:53.803Z,92.87
2016-06-12T01:50:54.634Z,92.3
2016-06-12T01:51:53.825Z,92.97
2016-06-12T01:52:53.812Z,93.35
2016-06-12T01:53:53.815Z,93.26
2016-06-12T01:54:53.835Z,92.49
2016-06-12T01:55:53.821Z,92.58
2016-06-12T01:56:53.793Z,92.3
2016-06-12T01:57:53.812Z,92.3
2016-06-12T01:58:53.814Z,92.58
2016-06-12T01:59:53.834Z,92.68
2016-06-12T02:00:53.853Z,92.39
2016-06-12T02:01:53.824Z,92.58
2016-06-12T02:02:53.827Z,92.87
2016-06-12T02:03:53.862Z,93.35
2016-06-12T02:04:53.849Z,93.54
2016-06-12T02:05:53.852Z,93.54
2016-06-12T02:06:53.839Z,92.39
2016-06-12T02:07:53.827Z,92.58
2016-06-12T02:08:53.831Z,92.3
2016-06-12T02:09:53.849Z,92.58
2016-06-12T02:10:53.868Z,92.87
2016-06-12T02:11:53.871Z,93.35
2016-06-12T02:12:53.858Z,93.35
2016-06-12T02:13:53.861Z,93.26
2016-06-12T02:14:53.864Z,93.54
2016-06-12T02:15:53.883Z,93.35
2016-06-12T02:16:53.855Z,93.26
2016-06-12T02:17:53.889Z,93.93
2016-06-12T02:18:53.861Z,94.4
2016-06-12T02:19:53.739Z,94.4
2016-06-12T02:20:53.976Z,93.73
2016-06-12T02:21:53.886Z,94.12
2016-06-12T02:22:53.888Z,94.21
2016-06-12T02:23:53.891Z,93.98
2016-06-12T02:24:53.910Z,94.12
2016-06-12T02:25:53.883Z,94.21
2016-06-12T02:26:53.886Z,94.4
2016-06-12T02:27:53.903Z,94.12
2016-06-12T02:28:53.907Z,94.31
2016-06-12T02:29:53.910Z,94.45
2016-06-12T02:30:53.898Z,94.74
2016-06-12T02:31:53.916Z,95.12
2016-06-12T02:32:53.920Z,95.03
2016-06-12T02:33:53.907Z,95.03
2016-06-12T02:34:53.925Z,95.12
2016-06-12T02:35:53.897Z,95.41
2016-06-12T02:36:53.947Z,94.64
2016-06-12T02:37:53.920Z,95.12
2016-06-12T02:38:53.923Z,94.93
2016-06-12T02:39:53.941Z,95.6
2016-06-12T02:40:53.943Z,96.37
2016-06-12T02:41:53.932Z,95.51
2016-06-12T02:42:53.935Z,95.7
2016-06-12T02:43:53.782Z,95.41
2016-06-12T02:44:53.925Z,95.51
2016-06-12T02:45:53.928Z,95.7
2016-06-12T02:46:54.009Z,94.74
2016-06-12T02:47:53.934Z,94.93
2016-06-12T02:48:53.937Z,94.79
2016-06-12T02:49:53.956Z,94.98
2016-06-12T02:50:54.521Z,94.74
2016-06-12T02:51:53.947Z,94.98
2016-06-12T02:52:53.949Z,94.89
2016-06-12T02:53:53.952Z,94.84
2016-06-12T02:54:53.987Z,94.98
2016-06-12T02:55:53.959Z,94.55
2016-06-12T02:56:53.977Z,94.93
2016-06-12T02:57:53.950Z,94.98
2016-06-12T02:58:53.968Z,94.45
2016-06-12T02:59:53.971Z,95.31
2016-06-12T03:00:53.990Z,95.7
2016-06-12T03:01:54.024Z,94.74
2016-06-12T03:02:53.996Z,95.22
2016-06-12T03:03:53.983Z,95.41
2016-06-12T03:04:53.987Z,95.31
2016-06-12T03:05:53.849Z,95.51
2016-06-12T03:06:53.992Z,95.89
2016-06-12T03:07:53.981Z,95.51
2016-06-12T03:08:53.984Z,95.6
2016-06-12T03:09:53.986Z,95.41
2016-06-12T03:10:53.990Z,95.98
2016-06-12T03:11:54.024Z,95.6
2016-06-12T03:12:54.011Z,95.41
2016-06-12T03:13:53.999Z,95.41
2016-06-12T03:14:54.002Z,95.6
2016-06-12T03:15:54.006Z,95.51
2016-06-12T03:16:54.023Z,95.79
2016-06-12T03:17:54.011Z,95.89
2016-06-12T03:18:54.014Z,95.31
2016-06-12T03:19:54.032Z,95.22
2016-06-12T03:20:54.083Z,95.51
2016-06-12T03:21:54.038Z,95.51
2016-06-12T03:22:54.026Z,95.41
2016-06-12T03:23:54.014Z,94.93
2016-06-12T03:24:54.033Z,95.31
2016-06-12T03:25:54.051Z,95.12
2016-06-12T03:26:54.023Z,94.93
2016-06-12T03:27:54.057Z,95.41
2016-06-12T03:28:54.045Z,95.41
2016-06-12T03:29:54.049Z,96.08
2016-06-12T03:30:54.051Z,95.03
2016-06-12T03:31:54.054Z,95.03
2016-06-12T03:32:54.073Z,95.12
2016-06-12T03:33:54.076Z,94.45
2016-06-12T03:34:54.048Z,94.4
2016-06-12T03:35:54.331Z,94.26
2016-06-12T03:36:53.960Z,94.55
2016-06-12T03:37:54.073Z,93.98
2016-06-12T03:38:54.076Z,94.21
2016-06-12T03:39:54.079Z,94.4
2016-06-12T03:40:54.066Z,94.17
2016-06-12T03:41:54.070Z,94.21
2016-06-12T03:42:54.072Z,93.73
2016-06-12T03:43:54.091Z,93.54
2016-06-12T03:44:54.094Z,93.06
2016-06-12T03:45:54.081Z,93.73
2016-06-12T03:46:54.085Z,93.83
2016-06-12T03:47:54.088Z,93.63
2016-06-12T03:48:54.074Z,93.54
2016-06-12T03:49:54.078Z,94.12
2016-06-12T03:50:54.206Z,93.63
2016-06-12T03:51:53.944Z,93.73
2016-06-12T03:52:54.087Z,93.73
2016-06-12T03:53:54.090Z,93.63
2016-06-12T03:54:54.110Z,93.35
2016-06-12T03:55:54.096Z,93.73
2016-06-12T03:56:54.099Z,93.16
2016-06-12T03:57:54.118Z,93.44
2016-06-12T03:58:54.105Z,93.73
2016-06-12T03:59:54.109Z,93.35
2016-06-12T04:00:54.128Z,93.73
2016-06-12T04:01:54.130Z,93.44
2016-06-12T04:02:54.117Z,93.16
2016-06-12T04:03:54.121Z,93.63
2016-06-12T04:04:54.124Z,93.35
2016-06-12T04:05:54.002Z,93.54
2016-06-12T04:06:54.162Z,93.59
2016-06-12T04:07:54.133Z,94.21
2016-06-12T04:08:54.152Z,94.35
2016-06-12T04:09:54.155Z,93.98
2016-06-12T04:10:54.142Z,93.35
2016-06-12T04:11:54.145Z,94.26
2016-06-12T04:12:54.164Z,94.02
2016-06-12T04:13:54.152Z,94.02
2016-06-12T04:14:54.139Z,93.93
2016-06-12T04:15:54.174Z,93.88
2016-06-12T04:16:54.177Z,93.83
2016-06-12T04:17:54.164Z,93.63
2016-06-12T04:18:54.151Z,93.54
2016-06-12T04:19:54.170Z,93.49
2016-06-12T04:20:54.173Z,93.54
2016-06-12T04:21:54.192Z,93.26
2016-06-12T04:22:54.023Z,93.73
2016-06-12T04:23:54.167Z,93.83
2016-06-12T04:24:54.186Z,93.54
2016-06-12T04:25:54.188Z,93.35
2016-06-12T04:26:54.176Z,94.02
2016-06-12T04:27:54.194Z,92.77
2016-06-12T04:28:54.183Z,93.54
2016-06-12T04:29:54.186Z,93.44
2016-06-12T04:30:54.189Z,93.54
2016-06-12T04:31:54.191Z,93.26
2016-06-12T04:32:54.226Z,93.44
2016-06-12T04:33:54.213Z,93.59
2016-06-12T04:34:54.216Z,93.44
2016-06-12T04:35:55.141Z,93.54
2016-06-12T04:36:54.207Z,92.77
2016-06-12T04:37:54.211Z,92.68
2016-06-12T04:38:54.213Z,92.77
2016-06-12T04:39:54.216Z,92.77
2016-06-12T04:40:54.235Z,92.3
2016-06-12T04:41:54.223Z,92.49
2016-06-12T04:42:54.226Z,92.87
2016-06-12T04:43:54.244Z,92.97
2016-06-12T04:44:54.247Z,92.49
2016-06-12T04:45:54.235Z,92.3
2016-06-12T04:46:54.238Z,92.2
2016-06-12T04:47:54.241Z,92.49
2016-06-12T04:48:54.244Z,92.3
2016-06-12T04:49:54.247Z,92.1
2016-06-12T04:50:54.937Z,91.91
2016-06-12T04:51:55.144Z,91.82
2016-06-12T04:52:54.271Z,91.72
2016-06-12T04:53:54.259Z,91.91
2016-06-12T04:54:54.263Z,92.49
2016-06-12T04:55:54.250Z,91.72
2016-06-12T04:56:54.252Z,90.86
2016-06-12T04:57:54.272Z,91.05
2016-06-12T04:58:54.259Z,91.09
2016-06-12T04:59:54.278Z,89.42
2016-06-12T05:00:54.265Z,89.23
2016-06-12T05:01:54.268Z,89.13
2016-06-12T05:02:54.287Z,90.38
2016-06-12T05:03:54.290Z,90.14
2016-06-12T05:04:54.293Z,90.28
2016-06-12T05:05:54.984Z,90.33
2016-06-12T05:06:54.487Z,90.04
2016-06-12T05:07:54.286Z,88.98
2016-06-12T05:08:54.305Z,88.94
2016-06-12T05:09:54.293Z,90.38
2016-06-12T05:10:54.312Z,91.24
2016-06-12T05:11:54.298Z,90.28
2016-06-12T05:12:54.302Z,90.67
2016-06-12T05:13:54.305Z,90
2016-06-12T05:14:54.308Z,89.8
2016-06-12T05:15:54.311Z,90.38
2016-06-12T05:16:54.361Z,91.05
2016-06-12T05:17:54.348Z,91.34
2016-06-12T05:18:54.337Z,91.34
2016-06-12T05:19:54.323Z,91.63
2016-06-12T05:20:54.373Z,91.53
2016-06-12T05:21:54.518Z,90.67
2016-06-12T05:22:54.333Z,90.67
2016-06-12T05:23:54.351Z,90.33
2016-06-12T05:24:54.339Z,91.09
2016-06-12T05:25:54.341Z,91.28
2016-06-12T05:26:54.345Z,90.42
2016-06-12T05:27:54.207Z,90.9
2016-06-12T05:28:54.367Z,90.9
2016-06-12T05:29:54.354Z,91.57
2016-06-12T05:30:54.374Z,91.67
2016-06-12T05:31:54.376Z,92.15
2016-06-12T05:32:54.380Z,92.63
2016-06-12T05:33:54.366Z,91.38
2016-06-12T05:34:54.370Z,91.19
2016-06-12T05:35:54.388Z,91.86
2016-06-12T05:36:54.376Z,92.58
2016-06-12T05:37:54.379Z,92.63
2016-06-12T05:38:54.413Z,93.68
2016-06-12T05:39:54.401Z,92.82
2016-06-12T05:40:54.404Z,92.63
2016-06-12T05:41:54.391Z,92.72
2016-06-12T05:42:54.410Z,92.72
2016-06-12T05:43:54.413Z,92.82
2016-06-12T05:44:54.384Z,92.82
2016-06-12T05:45:54.403Z,93.59
2016-06-12T05:46:54.453Z,93.35
2016-06-12T05:47:54.425Z,93.68
2016-06-12T05:48:54.412Z,93.93
2016-06-12T05:49:54.399Z,94.31
2016-06-12T05:50:54.778Z,95.17
2016-06-12T05:51:54.406Z,94.21
2016-06-12T05:52:54.456Z,93.35
2016-06-12T05:53:54.428Z,93.73
2016-06-12T05:54:54.431Z,93.73
2016-06-12T05:55:54.434Z,94.21
2016-06-12T05:56:54.437Z,94.02
2016-06-12T05:57:54.441Z,94.12
2016-06-12T05:58:54.459Z,94.98
2016-06-12T05:59:54.274Z,94.89
2016-06-12T06:00:54.466Z,94.98
2016-06-12T06:01:54.468Z,95.17
2016-06-12T06:02:54.456Z,94.12
2016-06-12T06:03:54.458Z,94.4
2016-06-12T06:04:54.478Z,94.79
2016-06-12T06:05:54.480Z,94.02
2016-06-12T06:06:54.468Z,94.54
2016-06-12T06:07:54.487Z,93.78
2016-06-12T06:08:54.490Z,93.78
2016-06-12T06:09:54.477Z,94.07
2016-06-12T06:10:54.480Z,94.07
2016-06-12T06:11:54.499Z,94.45
2016-06-12T06:12:54.486Z,94.54
2016-06-12T06:13:54.489Z,92.82
2016-06-12T06:14:54.509Z,93.97
2016-06-12T06:15:54.479Z,93.97
2016-06-12T06:16:54.498Z,94.07
2016-06-12T06:17:54.502Z,94.26
2016-06-12T06:18:54.505Z,93.73
2016-06-12T06:19:54.539Z,92.58
2016-06-12T06:20:54.526Z,92.29
2016-06-12T06:21:54.498Z,92.86
2016-06-12T06:22:54.548Z,93.06
2016-06-12T06:23:54.520Z,92.72
2016-06-12T06:24:54.523Z,92.54
2016-06-12T06:25:54.543Z,92.63
2016-06-12T06:26:54.513Z,92.34
2016-06-12T06:27:54.532Z,92.54
2016-06-12T06:28:54.552Z,93.59
2016-06-12T06:29:54.555Z,93.78
2016-06-12T06:30:54.386Z,93.49
2016-06-12T06:31:54.575Z,93.3
2016-06-12T06:32:54.548Z,93.78
2016-06-12T06:33:54.567Z,93.21
2016-06-12T06:34:54.553Z,93.59
2016-06-12T06:35:55.323Z,93.59
2016-06-12T06:36:54.576Z,92.77
2016-06-12T06:37:54.563Z,92.72
2016-06-12T06:38:54.613Z,92.15
2016-06-12T06:39:54.586Z,91.96
2016-06-12T06:40:54.589Z,92.48
2016-06-12T06:41:54.591Z,92.58
2016-06-12T06:42:54.595Z,92.48
2016-06-12T06:43:54.597Z,92.58
2016-06-12T06:44:54.601Z,91.91
2016-06-12T06:45:54.604Z,92.77
2016-06-12T06:46:54.591Z,90.85
2016-06-12T06:47:54.610Z,92
2016-06-12T06:48:54.612Z,92.39
2016-06-12T06:49:54.616Z,91.14
2016-06-12T06:50:54.619Z,90.8
2016-06-12T06:51:55.434Z,91.86
2016-06-12T06:52:54.625Z,90.32
2016-06-12T06:53:54.612Z,88.69
2016-06-12T06:54:54.631Z,88.79
2016-06-12T06:55:54.634Z,88.21
2016-06-12T06:56:54.653Z,88.69
2016-06-12T06:57:54.672Z,88.59
2016-06-12T06:58:54.627Z,89.26
2016-06-12T06:59:54.647Z,88.79
2016-06-12T07:00:54.665Z,88.35
2016-06-12T07:01:54.653Z,87.58
2016-06-12T07:02:54.499Z,87.77
2016-06-12T07:03:54.690Z,87.96
2016-06-12T07:04:54.662Z,88.64
2016-06-12T07:05:54.680Z,88.54
2016-06-12T07:06:54.559Z,87.77
2016-06-12T07:07:54.703Z,86.81
2016-06-12T07:08:54.706Z,87.29
2016-06-12T07:09:54.708Z,87.29
2016-06-12T07:10:54.696Z,86.72
2016-06-12T07:11:54.715Z,85.89
2016-06-12T07:12:54.702Z,86.95
2016-06-12T07:13:54.689Z,87.05
2016-06-12T07:14:54.724Z,84.55
2016-06-12T07:15:54.727Z,84.74
2016-06-12T07:16:54.714Z,85.61
2016-06-12T07:17:54.717Z,84.55
2016-06-12T07:18:54.736Z,85.32
2016-06-12T07:19:54.755Z,86.47
2016-06-12T07:20:54.726Z,86.18
2016-06-12T07:21:54.761Z,86.22
2016-06-12T07:22:54.765Z,84.98
2016-06-12T07:23:54.752Z,84.88
2016-06-12T07:24:54.738Z,85.22
2016-06-12T07:25:54.758Z,85.03
2016-06-12T07:26:54.760Z,85.32
2016-06-12T07:27:54.763Z,85.51
2016-06-12T07:28:54.767Z,85.32
2016-06-12T07:29:54.770Z,85.41
2016-06-12T07:30:54.789Z,85.22
2016-06-12T07:31:54.792Z,84.55
2016-06-12T07:32:54.795Z,84.94
2016-06-12T07:33:54.782Z,84.17
2016-06-12T07:34:54.801Z,84.17
2016-06-12T07:35:54.804Z,84.94
2016-06-12T07:36:55.619Z,85.61
2016-06-12T07:37:54.811Z,84.94
2016-06-12T07:38:54.798Z,84.64
2016-06-12T07:39:54.848Z,84.5
2016-06-12T07:40:54.820Z,83.53
2016-06-12T07:41:54.869Z,82.67
2016-06-12T07:42:54.841Z,82.96
2016-06-12T07:43:54.844Z,83.25
2016-06-12T07:44:54.847Z,83.34
2016-06-12T07:45:54.850Z,85.07
2016-06-12T07:46:54.916Z,84.69
2016-06-12T07:47:54.856Z,83.92
2016-06-12T07:48:54.844Z,83.34
2016-06-12T07:49:54.706Z,84.01
2016-06-12T07:50:54.865Z,83.87
2016-06-12T07:51:55.384Z,85.41
2016-06-12T07:52:54.903Z,86.47
2016-06-12T07:53:54.875Z,87.24
2016-06-12T07:54:54.894Z,87.87
2016-06-12T07:55:54.881Z,86.24
2016-06-12T07:56:54.884Z,89.12
2016-06-12T07:57:54.903Z,87.58
2016-06-12T07:58:54.890Z,87.58
2016-06-12T07:59:54.909Z,88.25
2016-06-12T08:00:54.927Z,89.5
2016-06-12T08:01:54.916Z,88.73
2016-06-12T08:02:54.902Z,87.87
2016-06-12T08:03:54.906Z,87.68
2016-06-12T08:04:54.924Z,87.49
2016-06-12T08:05:54.927Z,87.01
2016-06-12T08:06:54.993Z,87.58
2016-06-12T08:07:54.933Z,87.96
2016-06-12T08:08:54.952Z,88.64
2016-06-12T08:09:54.940Z,88.64
2016-06-12T08:10:54.943Z,88.54
2016-06-12T08:11:54.961Z,89.89
2016-06-12T08:12:54.949Z,89.5
2016-06-12T08:13:54.952Z,88.64
2016-06-12T08:14:54.955Z,87.49
2016-06-12T08:15:54.973Z,87.34
2016-06-12T08:16:55.055Z,87.72
2016-06-12T08:17:54.979Z,87.62
2016-06-12T08:18:54.999Z,87.53
2016-06-12T08:19:55.017Z,85.8
2016-06-12T08:20:54.989Z,86.47
2016-06-12T08:21:55.196Z,87.92
2016-06-12T08:22:54.995Z,87.92
2016-06-12T08:23:54.998Z,87.34
2016-06-12T08:24:55.017Z,86.57
2016-06-12T08:25:55.021Z,86.09
2016-06-12T08:26:55.101Z,85.94
2016-06-12T08:27:55.026Z,86.76
2016-06-12T08:28:55.030Z,86.22
2016-06-12T08:29:55.032Z,86.22
2016-06-12T08:30:55.036Z,86.8
2016-06-12T08:31:55.101Z,86.9
2016-06-12T08:32:55.041Z,87.29
2016-06-12T08:33:55.045Z,87.09
2016-06-12T08:34:55.047Z,85.84
2016-06-12T08:35:55.067Z,85.84
2016-06-12T08:36:54.898Z,85.17
2016-06-12T08:37:55.057Z,85.36
2016-06-12T08:38:55.076Z,86.32
2016-06-12T08:39:55.079Z,86.99
2016-06-12T08:40:55.097Z,86.32
2016-06-12T08:41:55.164Z,85.46
2016-06-12T08:42:55.070Z,85.07
2016-06-12T08:43:55.089Z,85.65
2016-06-12T08:44:55.091Z,85.36
2016-06-12T08:45:55.095Z,86.13
2016-06-12T08:46:55.112Z,84.88
2016-06-12T08:47:55.100Z,84.69
2016-06-12T08:48:55.104Z,85.55
2016-06-12T08:49:55.122Z,85.84
2016-06-12T08:50:55.125Z,85.71
2016-06-12T08:51:55.253Z,87.34
2016-06-12T08:52:54.959Z,88.01
2016-06-12T08:53:55.134Z,87.53
2016-06-12T08:54:55.138Z,87.72
2016-06-12T08:55:55.157Z,87.24
2016-06-12T08:56:55.190Z,88.39
2016-06-12T08:57:55.147Z,88.49
2016-06-12T08:58:55.150Z,88.59
2016-06-12T08:59:55.153Z,88.87
2016-06-12T09:00:55.171Z,87.82
2016-06-12T09:01:55.253Z,88.3
2016-06-12T09:02:55.178Z,87.92
2016-06-12T09:03:55.165Z,88.01
2016-06-12T09:04:55.168Z,87.72
2016-06-12T09:05:55.203Z,87.43
2016-06-12T09:06:55.237Z,87.24
2016-06-12T09:07:55.193Z,88.68
2016-06-12T09:08:55.197Z,88.59
2016-06-12T09:09:55.199Z,87.82
2016-06-12T09:10:55.203Z,87.34
2016-06-12T09:11:55.222Z,87.53
2016-06-12T09:12:55.239Z,85.89
2016-06-12T09:13:55.211Z,86.04
2016-06-12T09:14:55.216Z,84.26
2016-06-12T09:15:55.259Z,84.78
2016-06-12T09:16:55.397Z,85.61
2016-06-12T09:17:55.363Z,84.88
2016-06-12T09:18:55.407Z,85.17
2016-06-12T09:19:55.465Z,85.84
2016-06-12T09:20:55.499Z,84.98
2016-06-12T09:21:55.485Z,85.07
2016-06-12T09:22:56.112Z,84.5
2016-06-12T09:23:55.521Z,85.11
2016-06-12T09:24:55.538Z,85.11
2016-06-12T09:25:55.546Z,84.34
2016-06-12T09:26:55.554Z,84.06
2016-06-12T09:27:55.577Z,83.09
2016-06-12T09:28:55.571Z,82.52
2016-06-12T09:29:55.625Z,83.63
2016-06-12T09:30:55.630Z,85.27
2016-06-12T09:31:55.603Z,87.09
2016-06-12T09:32:55.609Z,87.43
2016-06-12T09:33:55.613Z,88.49
2016-06-12T09:34:55.634Z,89.07
2016-06-12T09:35:55.466Z,84.84
2016-06-12T09:36:55.704Z,85.03
2016-06-12T09:37:55.661Z,85.08
2016-06-12T09:38:55.633Z,85.18
2016-06-12T09:39:55.638Z,86.68
2016-06-12T09:40:55.657Z,87.92
2016-06-12T09:41:55.675Z,88.11
2016-06-12T09:42:55.664Z,89.07
2016-06-12T09:43:55.682Z,90.22
2016-06-12T09:44:55.671Z,91.19
2016-06-12T09:45:55.658Z,90.52
2016-06-12T09:46:55.583Z,90.13
2016-06-12T09:47:55.680Z,90.22
2016-06-12T09:48:55.714Z,90.13
2016-06-12T09:49:55.686Z,90.66
2016-06-12T09:50:55.704Z,90.37
2016-06-12T09:51:55.958Z,89.4
2016-06-12T09:52:55.695Z,88.78
2016-06-12T09:53:55.713Z,88.59
2016-06-12T09:54:55.717Z,88.49
2016-06-12T09:55:55.720Z,88.53
2016-06-12T09:56:55.722Z,88.53
2016-06-12T09:57:55.725Z,87.33
2016-06-12T09:58:55.714Z,85.6
2016-06-12T09:59:55.748Z,84.48
2016-06-12T10:00:55.735Z,82.85
2016-06-12T10:01:55.754Z,82.27
2016-06-12T10:02:55.757Z,80
2016-06-12T10:03:55.744Z,78.36
2016-06-12T10:04:55.747Z,78.65
2016-06-12T10:05:55.750Z,80
2016-06-12T10:06:55.801Z,80.1
2016-06-12T10:07:55.772Z,79.13
2016-06-12T10:08:55.775Z,78.98
2016-06-12T10:09:55.779Z,78.69
2016-06-12T10:10:55.626Z,77.92
2016-06-12T10:11:55.800Z,77.86
2016-06-12T10:12:55.804Z,77.67
2016-06-12T10:13:55.791Z,76.23
2016-06-12T10:14:55.810Z,76.8
2016-06-12T10:15:55.828Z,74.2
2016-06-12T10:16:55.800Z,75.16
2016-06-12T10:17:55.834Z,76.38
2016-06-12T10:18:55.822Z,78.5
2016-06-12T10:19:55.826Z,78.88
2016-06-12T10:20:55.843Z,75.99
2016-06-12T10:21:55.831Z,78.31
2016-06-12T10:22:55.960Z,77.92
2016-06-12T10:23:55.900Z,77.44
2016-06-12T10:24:55.888Z,77.92
2016-06-12T10:25:55.875Z,78.21
2016-06-12T10:26:55.894Z,76.76
2016-06-12T10:27:55.865Z,78.15
2016-06-12T10:28:55.884Z,78.11
2016-06-12T10:29:55.918Z,78.34
2016-06-12T10:30:55.906Z,75.84
2016-06-12T10:31:55.925Z,76.03
2016-06-12T10:32:55.897Z,77.09
2016-06-12T10:33:55.916Z,75.65
2016-06-12T10:34:55.918Z,76.13
2016-06-12T10:35:55.937Z,76.42
2016-06-12T10:36:55.925Z,77.19
2016-06-12T10:37:56.131Z,75.4
2016-06-12T10:38:55.962Z,74.33
2016-06-12T10:39:55.965Z,76.17
2016-06-12T10:40:55.952Z,72.73
2016-06-12T10:41:55.955Z,71
2016-06-12T10:42:55.974Z,70.22
2016-06-12T10:43:55.977Z,67.81
2016-06-12T10:44:55.980Z,69.97
2016-06-12T10:45:56.014Z,67.81
2016-06-12T10:46:56.033Z,67.52
2016-06-12T10:47:56.004Z,70.32
2016-06-12T10:48:56.008Z,71
2016-06-12T10:49:56.027Z,71.03
2016-06-12T10:50:56.013Z,68.62
2016-06-12T10:51:56.049Z,67.55
2016-06-12T10:52:56.036Z,69.49
2016-06-12T10:53:55.882Z,68.91
2016-06-12T10:54:56.042Z,69.87
2016-06-12T10:55:56.061Z,67.36
2016-06-12T10:56:55.923Z,69.87
2016-06-12T10:57:56.067Z,69.1
2016-06-12T10:58:56.071Z,69.2
2016-06-12T10:59:56.073Z,69.78
2016-06-12T11:00:56.076Z,68.81
2016-06-12T11:01:56.172Z,67.75
2016-06-12T11:02:56.098Z,68.71
2016-06-12T11:03:56.133Z,68.71
2016-06-12T11:04:56.135Z,66.2
2016-06-12T11:05:56.123Z,67.85
2016-06-12T11:06:56.110Z,66.91
2016-06-12T11:07:56.159Z,67.97
2016-06-12T11:08:56.132Z,66.63
2016-06-12T11:09:56.135Z,64.5
2016-06-12T11:10:56.154Z,64.69
2016-06-12T11:11:56.157Z,63.05
2016-06-12T11:12:56.206Z,65.72
2016-06-12T11:13:56.178Z,68.19
2016-06-12T11:14:56.182Z,68.01
2016-06-12T11:15:56.201Z,67.71
2016-06-12T11:16:56.204Z,69.55
2016-06-12T11:17:56.191Z,69.32
2016-06-12T11:18:56.209Z,68.84
2016-06-12T11:19:56.213Z,70.57
2016-06-12T11:20:56.216Z,70.48
2016-06-12T11:21:56.219Z,71.22
2016-06-12T11:22:56.425Z,70.15
2016-06-12T11:23:56.240Z,71.79
2016-06-12T11:24:56.243Z,73.72
2016-06-12T11:25:56.246Z,73.62
2016-06-12T11:26:56.281Z,73.01
2016-06-12T11:27:56.268Z,73.05
2016-06-12T11:28:56.255Z,73.3
2016-06-12T11:29:56.259Z,75.51
2016-06-12T11:30:56.277Z,75.03
2016-06-12T11:31:56.296Z,75.71
2016-06-12T11:32:56.300Z,74.49
2016-06-12T11:33:56.287Z,73.91
2016-06-12T11:34:56.290Z,74.49
2016-06-12T11:35:56.293Z,72.27
2016-06-12T11:36:56.312Z,71.12
2016-06-12T11:37:56.331Z,70
2016-06-12T11:38:56.319Z,67.1
2016-06-12T11:39:56.353Z,66.14
2016-06-12T11:40:56.325Z,64.31
2016-06-12T11:41:56.342Z,63.67
2016-06-12T11:42:56.345Z,65.5
2016-06-12T11:43:56.380Z,65.98
2016-06-12T11:44:56.351Z,63.89
2016-06-12T11:45:56.371Z,62.15
2016-06-12T11:46:56.374Z,61.19
2016-06-12T11:47:56.377Z,62.86
2016-06-12T11:48:56.380Z,61.12
2016-06-12T11:49:56.367Z,62.95
2016-06-12T11:50:56.386Z,60.06
2016-06-12T11:51:56.451Z,62.47
2016-06-12T11:52:56.517Z,61.02
2016-06-12T11:53:56.427Z,61.02
2016-06-12T11:54:56.429Z,58.12
2016-06-12T11:55:56.418Z,57.16
2016-06-12T11:56:56.499Z,56.1
2016-06-12T11:57:56.438Z,57.42
2016-06-12T11:58:56.457Z,57.04
2016-06-12T11:59:56.461Z,58.29
2016-06-12T12:00:56.448Z,57.62
2016-06-12T12:01:56.451Z,57.9
2016-06-12T12:02:56.470Z,57.71
2016-06-12T12:03:56.457Z,58.42
2016-06-12T12:04:56.491Z,57.06
2016-06-12T12:05:56.479Z,54.68
2016-06-12T12:06:56.482Z,55.13
2016-06-12T12:07:57.532Z,55.04
2016-06-12T12:08:56.488Z,56.1
2016-06-12T12:09:56.538Z,56.56
2016-06-12T12:10:56.510Z,56.94
2016-06-12T12:11:56.606Z,56.56
2016-06-12T12:12:56.515Z,56.74
2016-06-12T12:13:56.519Z,56.39
2016-06-12T12:14:56.538Z,57.16
2016-06-12T12:15:56.557Z,56.87
2016-06-12T12:16:56.608Z,57.16
2016-06-12T12:17:56.563Z,57.19
2016-06-12T12:18:56.566Z,56.9
2016-06-12T12:19:56.570Z,56.51
2016-06-12T12:20:56.604Z,55.26
2016-06-12T12:21:56.654Z,53.61
2016-06-12T12:22:56.829Z,53.55
2016-06-12T12:23:56.613Z,53.61
2016-06-12T12:24:56.599Z,54.61
2016-06-12T12:25:56.619Z,54.77
2016-06-12T12:26:56.638Z,55.47
2016-06-12T12:27:56.608Z,55.77
2016-06-12T12:28:56.644Z,55.38
2016-06-12T12:29:56.647Z,54.44
2016-06-12T12:30:56.665Z,54.05
2016-06-12T12:31:56.654Z,55.21
2016-06-12T12:32:56.656Z,54.53
2016-06-12T12:33:56.675Z,55.31
2016-06-12T12:34:56.694Z,54.44
2016-06-12T12:35:56.665Z,54.08
2016-06-12T12:36:56.730Z,54.08
2016-06-12T12:37:56.858Z,53.31
2016-06-12T12:38:56.720Z,52.7
2016-06-12T12:39:56.693Z,51.64
2016-06-12T12:40:56.727Z,52.99
2016-06-12T12:41:56.792Z,53.16
2016-06-12T12:42:56.733Z,54.32
2016-06-12T12:43:56.580Z,54.77
2016-06-12T12:44:56.756Z,55.26
2016-06-12T12:45:56.742Z,55.83
2016-06-12T12:46:56.761Z,56.29
2016-06-12T12:47:56.748Z,57.32
2016-06-12T12:48:56.783Z,61.19
2016-06-12T12:49:56.787Z,61.44
2016-06-12T12:50:56.774Z,62.31
2016-06-12T12:51:56.886Z,61.93
2016-06-12T12:52:56.999Z,62.31
2016-06-12T12:53:57.236Z,63.34
2016-06-12T12:54:56.802Z,63.31
2016-06-12T12:55:56.820Z,66.3